weather.gov     
National Weather Service

Terminal Aerodrome Forecast
NWS Homepage
This page is being discontinued on March 12, 2014.
The same data is available at this site. Please update your bookmarks.
Thank you, and we apologize for the inconvenience.
Please send an email to SR-SRH.Webmaster@noaa.gov with any concerns.


Current Version
Previous Version:    01  02  03  04  05  06  07  08  09  10  11  12  13  14  15  16  17  18  19  20  21  22  23  24  25  26  27  28  29  30  
   31  32  33  34  35  36  37  38  39  40  41  
[Printable]
972
FTUS45 KPUB 292320
TAFCOS
TAF
KCOS 292320Z 3000/3024 05012KT P6SM VCTS SCT050CB BKN100
      TEMPO 3002/3005 VRB15G30KT 3SM +TSRA BKN025CB
     FM300500 34008KT P6SM VCSH SCT030 OVC050
     FM300700 VRB05KT P6SM SCT050 BKN150
     FM301700 12007KT P6SM VCTS BKN040CB=




972
FTUS45 KPUB 292320
TAFCOS
TAF
KCOS 292320Z 3000/3024 05012KT P6SM VCTS SCT050CB BKN100
      TEMPO 3002/3005 VRB15G30KT 3SM +TSRA BKN025CB
     FM300500 34008KT P6SM VCSH SCT030 OVC050
     FM300700 VRB05KT P6SM SCT050 BKN150
     FM301700 12007KT P6SM VCTS BKN040CB=


U.S. Dept. of Commerce
NOAA National Weather Service
1325 East West Highway
Silver Spring, MD 20910
E-mail: w-nws.webmaster@noaa.gov
Page last modified: May 16, 2007
NATIONAL WEATHER SERVICE: for Safety, for Work, for Fun - FOR LIFE